Meteo Giornale » Osservazioni meteo Stati Uniti (USA) » Wink Winkler
ore: 12:53 - Osservazioni Meteo Wink Winkler
Lat. 31° 46' N Lon. 103° 12' W Alt. 860 metri s.l.m.
33 °C
Sereno
Temp. 24 Ore
26 °C
38 °C
Sud/Sud-Est
22.2 Km/h
Dew point 16 °C
Umidità 36 %
Visibilità 12 Km
Il sole sorge alle ore 07:28
Il sole tramonta alle ore 20:16
| Data e Ora | Cielo e Fenomeni | T °C | DP °C | Um. % | Pres. hPa | Vis. km | Vento km/h | |
|---|---|---|---|---|---|---|---|---|
| Oggi h: 12:53 | Sereno | 33 | 16 | 36 | 1017 | 12 | S/SE 22.2 | |
| Oggi h: 11:53 | Sereno | 32 | 17 | 40 | 1017 | 12 | SE 18.5 | |
| Oggi h: 10:53 | Nuvoloso | 30 | 18 | 48 | 1017 | 12 | SE 25.9 | |
| Oggi h: 09:53 | Poco Nuvoloso | 28 | 18 | 54 | 1017 | 11 | S/SE 31.5 | |
| Oggi h: 08:53 | Poco Nuvoloso | 27 | 18 | 57 | 1017 | 11 | SE 25.9 | |
| Oggi h: 07:53 | Sereno | 26 | 17 | 57 | 1017 | 11 | SE 25.9 | |
| Oggi h: 06:53 | Sereno | 26 | 16 | 54 | 1016 | 11 | SE 25.9 | |
| Oggi h: 05:53 | Sereno | 26 | 16 | 54 | 1016 | 11 | SE 22.2 | |
| Oggi h: 04:53 | Sereno | 27 | 16 | 50 | 1016 | 11 | SE 20.3 | |
| Oggi h: 03:53 | Sereno | 28 | 16 | 48 | 1016 | 11 | SE 18.5 | |
| Oggi h: 02:53 | Sereno | 28 | 16 | 48 | 1016 | 11 | SE 22.2 | |
| Oggi h: 01:53 | Sereno | 29 | 15 | 42 | 1016 | 11 | SE 20.3 | |
| Oggi h: 00:53 | Sereno | 30 | 14 | 37 | 1016 | 11 | S/SE 24 | |
| Ieri h: 23:53 | Sereno | 31 | 14 | 35 | 1015 | 10 | S/SE 31.5 | |
| Ieri h: 22:53 | Sereno | 32 | 13 | 31 | 1015 | 10 | S/SE 29.6 | |
| Ieri h: 21:53 | Sereno | 33 | 13 | 29 | 1014 | 10 | SE 31.5 | |
| Ieri h: 20:53 | Sereno | 34 | 13 | 28 | 1013 | 10 | SE 25.9 | |
| Ieri h: 19:53 | Sereno | 36 | 13 | 25 | 1012 | 10 | E/SE 35.2 | |
| Ieri h: 18:53 | Sereno | 37 | 11 | 20 | 1012 | 0 | E 13 | |
| Ieri h: 17:53 | Sereno | 37 | 12 | 22 | 1012 | 0 | N 11.1 | |
| Ieri h: 16:53 | Nuvoloso | 38 | 14 | 24 | 1013 | 0 | E/NE 13 | |
| Ieri h: 15:53 | Sereno | 37 | 14 | 25 | 1014 | 0 | N 5.5 | |
| Ieri h: 14:53 | Sereno | 36 | 14 | 26 | 1015 | 0 | SE 13 | |
| Ieri h: 13:53 | Sereno | 36 | 17 | 32 | 1015 | 0 | SE 20.3 | |



